sensor_id;sensor_type;location;lat;lon;timestamp;P1;durP1;ratioP1;P2;durP2;ratioP2
75218;SDS011;63801;49.414;19.474;2022-10-12T00:00:17;50.53;;;25.38;;
75218;SDS011;63801;49.414;19.474;2022-10-12T00:02:17;55.35;;;27.20;;
75218;SDS011;63801;49.414;19.474;2022-10-12T00:04:18;61.05;;;27.83;;
75218;SDS011;63801;49.414;19.474;2022-10-12T00:06:20;44.70;;;23.58;;
75218;SDS011;63801;49.414;19.474;2022-10-12T00:08:22;49.83;;;23.05;;
75218;SDS011;63801;49.414;19.474;2022-10-12T00:10:22;49.08;;;22.35;;
75218;SDS011;63801;49.414;19.474;2022-10-12T00:12:22;48.47;;;23.77;;
75218;SDS011;63801;49.414;19.474;2022-10-12T00:14:23;48.95;;;22.75;;
75218;SDS011;63801;49.414;19.474;2022-10-12T00:16:24;58.40;;;24.80;;
75218;SDS011;63801;49.414;19.474;2022-10-12T00:18:25;53.63;;;25.17;;
75218;SDS011;63801;49.414;19.474;2022-10-12T00:20:25;48.90;;;25.70;;
75218;SDS011;63801;49.414;19.474;2022-10-12T00:22:25;55.25;;;26.02;;
75218;SDS011;63801;49.414;19.474;2022-10-12T00:24:26;64.95;;;31.50;;
75218;SDS011;63801;49.414;19.474;2022-10-12T00:26:26;72.32;;;32.22;;
75218;SDS011;63801;49.414;19.474;2022-10-12T00:28:27;78.38;;;31.83;;
75218;SDS011;63801;49.414;19.474;2022-10-12T00:30:28;74.53;;;32.33;;
75218;SDS011;63801;49.414;19.474;2022-10-12T00:32:28;80.20;;;34.10;;
75218;SDS011;63801;49.414;19.474;2022-10-12T00:34:28;63.90;;;28.90;;
75218;SDS011;63801;49.414;19.474;2022-10-12T00:36:30;57.38;;;25.42;;
75218;SDS011;63801;49.414;19.474;2022-10-12T00:38:32;58.45;;;27.38;;
75218;SDS011;63801;49.414;19.474;2022-10-12T00:40:33;54.30;;;25.25;;
75218;SDS011;63801;49.414;19.474;2022-10-12T00:42:33;51.65;;;25.08;;
75218;SDS011;63801;49.414;19.474;2022-10-12T00:44:44;64.18;;;28.33;;
75218;SDS011;63801;49.414;19.474;2022-10-12T00:46:46;71.97;;;32.07;;
75218;SDS011;63801;49.414;19.474;2022-10-12T00:48:47;59.60;;;28.35;;
75218;SDS011;63801;49.414;19.474;2022-10-12T00:50:55;51.28;;;25.80;;
75218;SDS011;63801;49.414;19.474;2022-10-12T00:55:05;80.45;;;29.63;;
75218;SDS011;63801;49.414;19.474;2022-10-12T00:57:09;96.13;;;30.27;;
75218;SDS011;63801;49.414;19.474;2022-10-12T00:59:13;108.13;;;31.83;;
75218;SDS011;63801;49.414;19.474;2022-10-12T01:01:21;108.93;;;34.67;;
75218;SDS011;63801;49.414;19.474;2022-10-12T01:03:22;122.30;;;34.67;;
75218;SDS011;63801;49.414;19.474;2022-10-12T01:05:23;157.93;;;34.05;;
75218;SDS011;63801;49.414;19.474;2022-10-12T01:07:24;528.60;;;47.88;;
75218;SDS011;63801;49.414;19.474;2022-10-12T01:09:24;403.08;;;38.40;;
75218;SDS011;63801;49.414;19.474;2022-10-12T01:11:26;235.30;;;36.20;;
75218;SDS011;63801;49.414;19.474;2022-10-12T01:13:26;471.38;;;42.70;;
75218;SDS011;63801;49.414;19.474;2022-10-12T01:15:29;671.45;;;49.65;;
75218;SDS011;63801;49.414;19.474;2022-10-12T01:22:22;418.05;;;46.03;;
75218;SDS011;63801;49.414;19.474;2022-10-12T01:27:02;134.88;;;36.03;;
75218;SDS011;63801;49.414;19.474;2022-10-12T01:29:08;144.60;;;34.30;;
75218;SDS011;63801;49.414;19.474;2022-10-12T01:33:30;117.38;;;32.33;;
75218;SDS011;63801;49.414;19.474;2022-10-12T01:40:06;122.78;;;34.38;;
75218;SDS011;63801;49.414;19.474;2022-10-12T01:42:13;123.70;;;36.70;;
75218;SDS011;63801;49.414;19.474;2022-10-12T01:44:19;103.55;;;33.15;;
75218;SDS011;63801;49.414;19.474;2022-10-12T01:48:24;178.10;;;33.97;;
75218;SDS011;63801;49.414;19.474;2022-10-12T01:50:27;100.15;;;30.50;;
75218;SDS011;63801;49.414;19.474;2022-10-12T01:52:57;155.20;;;32.30;;
75218;SDS011;63801;49.414;19.474;2022-10-12T01:59:38;349.83;;;38.63;;
75218;SDS011;63801;49.414;19.474;2022-10-12T02:01:51;452.95;;;43.63;;
75218;SDS011;63801;49.414;19.474;2022-10-12T02:04:00;454.42;;;43.40;;
75218;SDS011;63801;49.414;19.474;2022-10-12T02:06:15;317.40;;;37.63;;
75218;SDS011;63801;49.414;19.474;2022-10-12T02:08:22;242.98;;;32.30;;
75218;SDS011;63801;49.414;19.474;2022-10-12T02:10:45;343.05;;;34.72;;
75218;SDS011;63801;49.414;19.474;2022-10-12T02:12:59;309.85;;;35.72;;
75218;SDS011;63801;49.414;19.474;2022-10-12T02:15:03;271.52;;;35.50;;
75218;SDS011;63801;49.414;19.474;2022-10-12T02:17:07;259.95;;;33.17;;
75218;SDS011;63801;49.414;19.474;2022-10-12T02:19:12;145.70;;;30.20;;
75218;SDS011;63801;49.414;19.474;2022-10-12T02:21:19;67.70;;;26.45;;
75218;SDS011;63801;49.414;19.474;2022-10-12T02:23:24;67.75;;;26.15;;
75218;SDS011;63801;49.414;19.474;2022-10-12T02:25:27;64.90;;;23.27;;
75218;SDS011;63801;49.414;19.474;2022-10-12T02:27:28;64.72;;;23.98;;
75218;SDS011;63801;49.414;19.474;2022-10-12T02:29:37;64.93;;;25.83;;
75218;SDS011;63801;49.414;19.474;2022-10-12T02:31:56;61.15;;;25.10;;
75218;SDS011;63801;49.414;19.474;2022-10-12T02:34:03;62.55;;;24.08;;
75218;SDS011;63801;49.414;19.474;2022-10-12T02:36:11;63.85;;;25.15;;
75218;SDS011;63801;49.414;19.474;2022-10-12T02:42:34;77.70;;;28.53;;
75218;SDS011;63801;49.414;19.474;2022-10-12T02:44:39;67.88;;;27.50;;
75218;SDS011;63801;49.414;19.474;2022-10-12T02:48:45;81.70;;;28.52;;
75218;SDS011;63801;49.414;19.474;2022-10-12T02:50:48;70.72;;;26.40;;
75218;SDS011;63801;49.414;19.474;2022-10-12T02:52:52;60.10;;;24.00;;
75218;SDS011;63801;49.414;19.474;2022-10-12T02:54:53;57.53;;;24.65;;
75218;SDS011;63801;49.414;19.474;2022-10-12T02:56:53;59.65;;;24.67;;
75218;SDS011;63801;49.414;19.474;2022-10-12T02:58:54;60.45;;;25.67;;
75218;SDS011;63801;49.414;19.474;2022-10-12T03:00:54;63.88;;;25.83;;
75218;SDS011;63801;49.414;19.474;2022-10-12T03:02:54;66.10;;;26.35;;
75218;SDS011;63801;49.414;19.474;2022-10-12T03:04:55;59.15;;;24.00;;
75218;SDS011;63801;49.414;19.474;2022-10-12T03:06:55;70.32;;;25.98;;
75218;SDS011;63801;49.414;19.474;2022-10-12T03:08:55;70.60;;;26.30;;
75218;SDS011;63801;49.414;19.474;2022-10-12T03:11:03;117.72;;;27.85;;
75218;SDS011;63801;49.414;19.474;2022-10-12T03:13:04;192.30;;;31.52;;
75218;SDS011;63801;49.414;19.474;2022-10-12T03:15:05;268.55;;;35.70;;
75218;SDS011;63801;49.414;19.474;2022-10-12T03:17:05;216.77;;;32.35;;
75218;SDS011;63801;49.414;19.474;2022-10-12T03:19:06;228.65;;;33.63;;
75218;SDS011;63801;49.414;19.474;2022-10-12T03:21:07;134.35;;;30.55;;
75218;SDS011;63801;49.414;19.474;2022-10-12T03:23:07;138.48;;;31.25;;
75218;SDS011;63801;49.414;19.474;2022-10-12T03:25:07;171.20;;;31.52;;
75218;SDS011;63801;49.414;19.474;2022-10-12T03:27:08;196.18;;;31.23;;
75218;SDS011;63801;49.414;19.474;2022-10-12T03:29:08;112.40;;;29.13;;
75218;SDS011;63801;49.414;19.474;2022-10-12T03:31:08;215.93;;;30.90;;
75218;SDS011;63801;49.414;19.474;2022-10-12T03:33:09;129.75;;;28.48;;
75218;SDS011;63801;49.414;19.474;2022-10-12T03:35:09;76.75;;;26.10;;
75218;SDS011;63801;49.414;19.474;2022-10-12T03:37:10;71.25;;;26.25;;
75218;SDS011;63801;49.414;19.474;2022-10-12T03:39:10;65.25;;;27.30;;
75218;SDS011;63801;49.414;19.474;2022-10-12T03:41:11;58.75;;;23.65;;
75218;SDS011;63801;49.414;19.474;2022-10-12T03:43:11;58.97;;;24.15;;
75218;SDS011;63801;49.414;19.474;2022-10-12T03:45:12;61.00;;;23.45;;
75218;SDS011;63801;49.414;19.474;2022-10-12T03:47:12;57.40;;;22.42;;
75218;SDS011;63801;49.414;19.474;2022-10-12T03:49:13;54.20;;;21.60;;
75218;SDS011;63801;49.414;19.474;2022-10-12T03:51:13;54.70;;;22.45;;
75218;SDS011;63801;49.414;19.474;2022-10-12T03:53:13;53.45;;;22.85;;
75218;SDS011;63801;49.414;19.474;2022-10-12T03:55:14;51.92;;;22.38;;
75218;SDS011;63801;49.414;19.474;2022-10-12T03:57:14;51.10;;;22.00;;
75218;SDS011;63801;49.414;19.474;2022-10-12T03:59:14;52.47;;;23.65;;
75218;SDS011;63801;49.414;19.474;2022-10-12T04:01:15;54.50;;;23.17;;
75218;SDS011;63801;49.414;19.474;2022-10-12T04:03:15;54.47;;;23.52;;
75218;SDS011;63801;49.414;19.474;2022-10-12T04:05:15;50.45;;;22.60;;
75218;SDS011;63801;49.414;19.474;2022-10-12T04:07:16;68.07;;;26.17;;
75218;SDS011;63801;49.414;19.474;2022-10-12T04:09:16;283.83;;;31.30;;
75218;SDS011;63801;49.414;19.474;2022-10-12T04:11:16;265.52;;;34.63;;
75218;SDS011;63801;49.414;19.474;2022-10-12T04:13:17;358.02;;;38.75;;
75218;SDS011;63801;49.414;19.474;2022-10-12T04:15:17;201.65;;;39.83;;
75218;SDS011;63801;49.414;19.474;2022-10-12T04:17:18;163.27;;;37.90;;
75218;SDS011;63801;49.414;19.474;2022-10-12T04:19:18;245.98;;;40.28;;
75218;SDS011;63801;49.414;19.474;2022-10-12T04:21:23;208.73;;;40.25;;
75218;SDS011;63801;49.414;19.474;2022-10-12T04:23:24;184.25;;;37.60;;
75218;SDS011;63801;49.414;19.474;2022-10-12T04:25:25;137.48;;;34.90;;
75218;SDS011;63801;49.414;19.474;2022-10-12T04:27:25;99.03;;;31.23;;
75218;SDS011;63801;49.414;19.474;2022-10-12T04:29:25;94.85;;;29.90;;
75218;SDS011;63801;49.414;19.474;2022-10-12T04:31:25;98.38;;;31.27;;
75218;SDS011;63801;49.414;19.474;2022-10-12T04:33:26;80.25;;;27.48;;
75218;SDS011;63801;49.414;19.474;2022-10-12T04:35:27;75.25;;;27.23;;
75218;SDS011;63801;49.414;19.474;2022-10-12T04:37:27;72.10;;;27.10;;
75218;SDS011;63801;49.414;19.474;2022-10-12T04:39:28;73.47;;;26.85;;
75218;SDS011;63801;49.414;19.474;2022-10-12T04:41:29;70.95;;;26.95;;
75218;SDS011;63801;49.414;19.474;2022-10-12T04:43:29;69.88;;;26.90;;
75218;SDS011;63801;49.414;19.474;2022-10-12T04:45:30;73.03;;;26.63;;
75218;SDS011;63801;49.414;19.474;2022-10-12T04:47:32;76.93;;;31.33;;
75218;SDS011;63801;49.414;19.474;2022-10-12T04:51:33;105.17;;;39.43;;
75218;SDS011;63801;49.414;19.474;2022-10-12T04:53:33;124.43;;;44.60;;
75218;SDS011;63801;49.414;19.474;2022-10-12T04:55:35;128.98;;;44.50;;
75218;SDS011;63801;49.414;19.474;2022-10-12T04:57:36;111.72;;;42.28;;
75218;SDS011;63801;49.414;19.474;2022-10-12T04:59:36;102.55;;;37.80;;
75218;SDS011;63801;49.414;19.474;2022-10-12T05:01:37;95.63;;;36.33;;
75218;SDS011;63801;49.414;19.474;2022-10-12T05:03:37;96.22;;;37.08;;
75218;SDS011;63801;49.414;19.474;2022-10-12T05:05:37;94.30;;;36.08;;
75218;SDS011;63801;49.414;19.474;2022-10-12T05:07:37;96.00;;;35.65;;
75218;SDS011;63801;49.414;19.474;2022-10-12T05:09:38;123.90;;;41.78;;
75218;SDS011;63801;49.414;19.474;2022-10-12T05:11:38;114.55;;;41.08;;
75218;SDS011;63801;49.414;19.474;2022-10-12T05:13:38;115.75;;;39.85;;
75218;SDS011;63801;49.414;19.474;2022-10-12T05:15:40;108.82;;;36.70;;
75218;SDS011;63801;49.414;19.474;2022-10-12T05:17:41;91.50;;;35.90;;
75218;SDS011;63801;49.414;19.474;2022-10-12T05:19:41;92.60;;;35.50;;
75218;SDS011;63801;49.414;19.474;2022-10-12T05:21:41;88.97;;;32.22;;
75218;SDS011;63801;49.414;19.474;2022-10-12T05:23:42;85.57;;;32.38;;
75218;SDS011;63801;49.414;19.474;2022-10-12T05:25:42;89.78;;;30.38;;
75218;SDS011;63801;49.414;19.474;2022-10-12T05:27:42;84.53;;;31.88;;
75218;SDS011;63801;49.414;19.474;2022-10-12T05:29:43;79.28;;;30.52;;
75218;SDS011;63801;49.414;19.474;2022-10-12T05:31:43;87.10;;;37.13;;
75218;SDS011;63801;49.414;19.474;2022-10-12T05:33:43;128.80;;;52.00;;
75218;SDS011;63801;49.414;19.474;2022-10-12T05:35:43;133.55;;;55.80;;
75218;SDS011;63801;49.414;19.474;2022-10-12T05:37:44;124.75;;;49.42;;
75218;SDS011;63801;49.414;19.474;2022-10-12T05:39:44;87.10;;;33.92;;
75218;SDS011;63801;49.414;19.474;2022-10-12T05:41:45;74.75;;;32.60;;
75218;SDS011;63801;49.414;19.474;2022-10-12T05:43:46;79.55;;;29.92;;
75218;SDS011;63801;49.414;19.474;2022-10-12T05:45:46;68.22;;;28.63;;
75218;SDS011;63801;49.414;19.474;2022-10-12T05:47:47;80.15;;;32.33;;
75218;SDS011;63801;49.414;19.474;2022-10-12T05:49:47;78.97;;;35.95;;
75218;SDS011;63801;49.414;19.474;2022-10-12T05:51:47;86.25;;;33.90;;
75218;SDS011;63801;49.414;19.474;2022-10-12T05:53:47;73.70;;;33.08;;
75218;SDS011;63801;49.414;19.474;2022-10-12T05:55:54;63.67;;;26.88;;
75218;SDS011;63801;49.414;19.474;2022-10-12T05:57:56;51.45;;;22.75;;
75218;SDS011;63801;49.414;19.474;2022-10-12T05:59:56;62.92;;;23.33;;
75218;SDS011;63801;49.414;19.474;2022-10-12T06:01:57;68.30;;;25.27;;
75218;SDS011;63801;49.414;19.474;2022-10-12T06:03:57;69.07;;;25.58;;
75218;SDS011;63801;49.414;19.474;2022-10-12T06:05:57;69.40;;;25.27;;
75218;SDS011;63801;49.414;19.474;2022-10-12T06:07:58;66.50;;;24.48;;
75218;SDS011;63801;49.414;19.474;2022-10-12T06:09:58;64.13;;;24.02;;
75218;SDS011;63801;49.414;19.474;2022-10-12T06:11:59;63.92;;;23.83;;
75218;SDS011;63801;49.414;19.474;2022-10-12T06:13:59;60.33;;;25.20;;
75218;SDS011;63801;49.414;19.474;2022-10-12T06:15:59;63.35;;;26.15;;
75218;SDS011;63801;49.414;19.474;2022-10-12T06:18:00;55.97;;;25.20;;
75218;SDS011;63801;49.414;19.474;2022-10-12T06:20:00;62.42;;;26.15;;
75218;SDS011;63801;49.414;19.474;2022-10-12T06:22:01;55.90;;;25.00;;
75218;SDS011;63801;49.414;19.474;2022-10-12T06:24:01;59.22;;;23.55;;
75218;SDS011;63801;49.414;19.474;2022-10-12T06:26:02;60.47;;;23.33;;
75218;SDS011;63801;49.414;19.474;2022-10-12T06:28:02;59.00;;;23.92;;
75218;SDS011;63801;49.414;19.474;2022-10-12T06:30:03;69.07;;;29.88;;
75218;SDS011;63801;49.414;19.474;2022-10-12T06:32:04;95.45;;;39.63;;
75218;SDS011;63801;49.414;19.474;2022-10-12T06:34:04;109.43;;;47.72;;
75218;SDS011;63801;49.414;19.474;2022-10-12T06:36:05;97.75;;;46.63;;
75218;SDS011;63801;49.414;19.474;2022-10-12T06:38:05;96.97;;;44.90;;
75218;SDS011;63801;49.414;19.474;2022-10-12T06:40:06;98.43;;;44.67;;
75218;SDS011;63801;49.414;19.474;2022-10-12T06:42:06;78.85;;;39.08;;
75218;SDS011;63801;49.414;19.474;2022-10-12T06:44:08;79.05;;;37.22;;
75218;SDS011;63801;49.414;19.474;2022-10-12T06:46:08;70.07;;;35.80;;
75218;SDS011;63801;49.414;19.474;2022-10-12T06:48:09;60.63;;;32.67;;
75218;SDS011;63801;49.414;19.474;2022-10-12T06:50:09;59.95;;;29.27;;
75218;SDS011;63801;49.414;19.474;2022-10-12T06:52:10;59.03;;;30.67;;
75218;SDS011;63801;49.414;19.474;2022-10-12T06:54:10;58.55;;;27.80;;
75218;SDS011;63801;49.414;19.474;2022-10-12T06:56:11;62.42;;;29.83;;
75218;SDS011;63801;49.414;19.474;2022-10-12T06:58:11;52.92;;;26.50;;
75218;SDS011;63801;49.414;19.474;2022-10-12T07:00:12;54.33;;;24.38;;
75218;SDS011;63801;49.414;19.474;2022-10-12T07:02:12;49.42;;;23.92;;
75218;SDS011;63801;49.414;19.474;2022-10-12T07:04:13;47.05;;;23.00;;
75218;SDS011;63801;49.414;19.474;2022-10-12T07:06:13;48.40;;;24.13;;
75218;SDS011;63801;49.414;19.474;2022-10-12T07:08:14;47.05;;;21.50;;
75218;SDS011;63801;49.414;19.474;2022-10-12T07:10:14;42.53;;;22.52;;
75218;SDS011;63801;49.414;19.474;2022-10-12T07:12:14;43.08;;;21.10;;
75218;SDS011;63801;49.414;19.474;2022-10-12T07:14:15;38.90;;;21.92;;
75218;SDS011;63801;49.414;19.474;2022-10-12T07:16:15;38.88;;;21.08;;
75218;SDS011;63801;49.414;19.474;2022-10-12T07:18:15;39.67;;;21.45;;
75218;SDS011;63801;49.414;19.474;2022-10-12T07:20:16;44.22;;;22.48;;
75218;SDS011;63801;49.414;19.474;2022-10-12T07:22:16;39.75;;;21.17;;
75218;SDS011;63801;49.414;19.474;2022-10-12T07:24:16;39.40;;;20.23;;
75218;SDS011;63801;49.414;19.474;2022-10-12T07:26:17;35.95;;;18.40;;
75218;SDS011;63801;49.414;19.474;2022-10-12T07:28:17;39.28;;;20.38;;
75218;SDS011;63801;49.414;19.474;2022-10-12T07:30:18;40.70;;;21.05;;
75218;SDS011;63801;49.414;19.474;2022-10-12T07:32:19;39.65;;;20.63;;
75218;SDS011;63801;49.414;19.474;2022-10-12T07:34:19;44.03;;;21.33;;
75218;SDS011;63801;49.414;19.474;2022-10-12T07:36:19;40.78;;;21.15;;
75218;SDS011;63801;49.414;19.474;2022-10-12T07:38:19;40.10;;;20.42;;
75218;SDS011;63801;49.414;19.474;2022-10-12T07:40:20;34.33;;;19.23;;
75218;SDS011;63801;49.414;19.474;2022-10-12T07:42:20;36.83;;;19.27;;
75218;SDS011;63801;49.414;19.474;2022-10-12T07:44:20;39.05;;;20.45;;
75218;SDS011;63801;49.414;19.474;2022-10-12T07:46:21;46.47;;;24.42;;
75218;SDS011;63801;49.414;19.474;2022-10-12T07:48:21;32.00;;;17.90;;
75218;SDS011;63801;49.414;19.474;2022-10-12T07:50:22;31.98;;;17.65;;
75218;SDS011;63801;49.414;19.474;2022-10-12T07:52:24;38.88;;;18.13;;
75218;SDS011;63801;49.414;19.474;2022-10-12T07:54:27;28.30;;;16.60;;
75218;SDS011;63801;49.414;19.474;2022-10-12T07:56:29;32.08;;;18.17;;
75218;SDS011;63801;49.414;19.474;2022-10-12T07:58:30;29.08;;;17.10;;
75218;SDS011;63801;49.414;19.474;2022-10-12T08:00:30;31.48;;;18.40;;
75218;SDS011;63801;49.414;19.474;2022-10-12T08:02:31;27.58;;;16.30;;
75218;SDS011;63801;49.414;19.474;2022-10-12T08:04:31;29.35;;;16.27;;
75218;SDS011;63801;49.414;19.474;2022-10-12T08:06:32;27.58;;;16.65;;
75218;SDS011;63801;49.414;19.474;2022-10-12T08:08:33;27.50;;;16.55;;
75218;SDS011;63801;49.414;19.474;2022-10-12T08:10:34;30.30;;;18.00;;
75218;SDS011;63801;49.414;19.474;2022-10-12T08:12:35;33.47;;;18.40;;
75218;SDS011;63801;49.414;19.474;2022-10-12T08:14:35;33.20;;;17.52;;
75218;SDS011;63801;49.414;19.474;2022-10-12T08:16:36;39.20;;;19.67;;
75218;SDS011;63801;49.414;19.474;2022-10-12T08:18:36;30.38;;;18.67;;
75218;SDS011;63801;49.414;19.474;2022-10-12T08:20:37;32.75;;;20.08;;
75218;SDS011;63801;49.414;19.474;2022-10-12T08:22:38;39.03;;;21.30;;
75218;SDS011;63801;49.414;19.474;2022-10-12T08:24:38;29.90;;;19.00;;
75218;SDS011;63801;49.414;19.474;2022-10-12T08:26:39;31.02;;;18.17;;
75218;SDS011;63801;49.414;19.474;2022-10-12T08:28:39;32.47;;;17.92;;
75218;SDS011;63801;49.414;19.474;2022-10-12T08:30:39;34.05;;;19.17;;
75218;SDS011;63801;49.414;19.474;2022-10-12T08:32:39;29.35;;;17.20;;
75218;SDS011;63801;49.414;19.474;2022-10-12T08:34:40;36.60;;;19.17;;
75218;SDS011;63801;49.414;19.474;2022-10-12T08:36:40;29.75;;;18.42;;
75218;SDS011;63801;49.414;19.474;2022-10-12T08:38:40;28.60;;;16.77;;
75218;SDS011;63801;49.414;19.474;2022-10-12T08:40:51;26.10;;;16.47;;
75218;SDS011;63801;49.414;19.474;2022-10-12T08:42:54;25.58;;;16.30;;
75218;SDS011;63801;49.414;19.474;2022-10-12T08:47:41;25.13;;;15.18;;
75218;SDS011;63801;49.414;19.474;2022-10-12T08:49:45;23.98;;;15.15;;
75218;SDS011;63801;49.414;19.474;2022-10-12T08:51:48;28.47;;;16.27;;
75218;SDS011;63801;49.414;19.474;2022-10-12T08:53:56;27.90;;;17.13;;
75218;SDS011;63801;49.414;19.474;2022-10-12T08:55:57;23.98;;;14.82;;
75218;SDS011;63801;49.414;19.474;2022-10-12T08:57:58;26.35;;;15.52;;
75218;SDS011;63801;49.414;19.474;2022-10-12T08:59:58;26.33;;;14.65;;
75218;SDS011;63801;49.414;19.474;2022-10-12T09:06:45;27.80;;;14.77;;
75218;SDS011;63801;49.414;19.474;2022-10-12T09:08:54;23.17;;;14.65;;
75218;SDS011;63801;49.414;19.474;2022-10-12T09:13:42;25.90;;;14.93;;
75218;SDS011;63801;49.414;19.474;2022-10-12T09:16:02;30.05;;;18.02;;
75218;SDS011;63801;49.414;19.474;2022-10-12T09:18:20;33.42;;;17.85;;
75218;SDS011;63801;49.414;19.474;2022-10-12T09:22:34;31.08;;;17.98;;
75218;SDS011;63801;49.414;19.474;2022-10-12T09:24:35;30.33;;;16.95;;
75218;SDS011;63801;49.414;19.474;2022-10-12T09:26:38;45.92;;;26.17;;
75218;SDS011;63801;49.414;19.474;2022-10-12T09:30:55;51.90;;;30.48;;
75218;SDS011;63801;49.414;19.474;2022-10-12T09:33:22;29.30;;;18.77;;
75218;SDS011;63801;49.414;19.474;2022-10-12T09:35:31;25.25;;;14.82;;
75218;SDS011;63801;49.414;19.474;2022-10-12T09:37:32;27.25;;;13.90;;
75218;SDS011;63801;49.414;19.474;2022-10-12T09:39:35;26.45;;;15.05;;
75218;SDS011;63801;49.414;19.474;2022-10-12T09:41:38;23.50;;;13.87;;
75218;SDS011;63801;49.414;19.474;2022-10-12T09:43:41;20.52;;;12.98;;
75218;SDS011;63801;49.414;19.474;2022-10-12T09:45:41;22.17;;;12.82;;
75218;SDS011;63801;49.414;19.474;2022-10-12T09:47:42;27.13;;;14.18;;
75218;SDS011;63801;49.414;19.474;2022-10-12T09:50:08;20.42;;;10.82;;
75218;SDS011;63801;49.414;19.474;2022-10-12T09:52:09;22.40;;;12.93;;
75218;SDS011;63801;49.414;19.474;2022-10-12T09:54:16;20.60;;;12.82;;
75218;SDS011;63801;49.414;19.474;2022-10-12T09:56:22;25.60;;;11.90;;
75218;SDS011;63801;49.414;19.474;2022-10-12T09:58:23;23.73;;;11.63;;
75218;SDS011;63801;49.414;19.474;2022-10-12T10:00:32;20.23;;;12.18;;
75218;SDS011;63801;49.414;19.474;2022-10-12T10:02:33;24.88;;;14.88;;
75218;SDS011;63801;49.414;19.474;2022-10-12T10:04:47;25.35;;;13.10;;
75218;SDS011;63801;49.414;19.474;2022-10-12T10:06:49;23.50;;;14.95;;
75218;SDS011;63801;49.414;19.474;2022-10-12T10:08:49;24.50;;;13.55;;
75218;SDS011;63801;49.414;19.474;2022-10-12T10:10:50;26.33;;;13.07;;
75218;SDS011;63801;49.414;19.474;2022-10-12T10:12:55;20.67;;;12.07;;
75218;SDS011;63801;49.414;19.474;2022-10-12T10:16:58;17.70;;;11.00;;
75218;SDS011;63801;49.414;19.474;2022-10-12T10:18:59;20.45;;;12.65;;
75218;SDS011;63801;49.414;19.474;2022-10-12T10:21:02;30.02;;;15.13;;
75218;SDS011;63801;49.414;19.474;2022-10-12T10:23:05;22.58;;;13.15;;
75218;SDS011;63801;49.414;19.474;2022-10-12T10:25:05;25.92;;;13.82;;
75218;SDS011;63801;49.414;19.474;2022-10-12T10:29:37;21.70;;;13.20;;
75218;SDS011;63801;49.414;19.474;2022-10-12T10:31:39;19.65;;;12.07;;
75218;SDS011;63801;49.414;19.474;2022-10-12T10:33:40;21.85;;;13.27;;
75218;SDS011;63801;49.414;19.474;2022-10-12T10:36:03;20.60;;;12.30;;
75218;SDS011;63801;49.414;19.474;2022-10-12T10:38:03;21.50;;;11.60;;
75218;SDS011;63801;49.414;19.474;2022-10-12T10:40:03;18.90;;;11.70;;
75218;SDS011;63801;49.414;19.474;2022-10-12T10:42:11;18.90;;;11.63;;
75218;SDS011;63801;49.414;19.474;2022-10-12T10:44:21;20.75;;;12.30;;
75218;SDS011;63801;49.414;19.474;2022-10-12T10:46:23;22.58;;;14.75;;
75218;SDS011;63801;49.414;19.474;2022-10-12T10:48:28;23.58;;;13.70;;
75218;SDS011;63801;49.414;19.474;2022-10-12T10:50:34;20.67;;;13.45;;
75218;SDS011;63801;49.414;19.474;2022-10-12T10:52:40;20.85;;;13.07;;
75218;SDS011;63801;49.414;19.474;2022-10-12T10:54:40;23.95;;;13.90;;
75218;SDS011;63801;49.414;19.474;2022-10-12T10:56:40;26.23;;;13.88;;
75218;SDS011;63801;49.414;19.474;2022-10-12T10:58:43;19.08;;;12.13;;
75218;SDS011;63801;49.414;19.474;2022-10-12T11:00:44;21.70;;;12.32;;
75218;SDS011;63801;49.414;19.474;2022-10-12T11:02:48;21.92;;;12.93;;
75218;SDS011;63801;49.414;19.474;2022-10-12T11:05:04;25.95;;;15.30;;
75218;SDS011;63801;49.414;19.474;2022-10-12T11:07:45;25.70;;;14.80;;
75218;SDS011;63801;49.414;19.474;2022-10-12T11:09:42;25.58;;;15.85;;
75218;SDS011;63801;49.414;19.474;2022-10-12T11:11:46;24.17;;;14.48;;
75218;SDS011;63801;49.414;19.474;2022-10-12T11:14:01;21.80;;;13.30;;
75218;SDS011;63801;49.414;19.474;2022-10-12T11:16:09;23.48;;;13.00;;
75218;SDS011;63801;49.414;19.474;2022-10-12T11:18:24;24.38;;;15.43;;
75218;SDS011;63801;49.414;19.474;2022-10-12T11:22:48;24.48;;;16.45;;
75218;SDS011;63801;49.414;19.474;2022-10-12T11:27:21;31.73;;;17.27;;
75218;SDS011;63801;49.414;19.474;2022-10-12T11:29:26;35.72;;;20.10;;
75218;SDS011;63801;49.414;19.474;2022-10-12T11:31:29;45.15;;;26.63;;
75218;SDS011;63801;49.414;19.474;2022-10-12T11:33:34;41.80;;;23.58;;
75218;SDS011;63801;49.414;19.474;2022-10-12T11:35:44;31.75;;;18.92;;
75218;SDS011;63801;49.414;19.474;2022-10-12T11:37:50;36.55;;;17.65;;
75218;SDS011;63801;49.414;19.474;2022-10-12T11:39:59;23.02;;;13.43;;
75218;SDS011;63801;49.414;19.474;2022-10-12T11:42:02;33.42;;;19.20;;
75218;SDS011;63801;49.414;19.474;2022-10-12T11:44:10;32.83;;;17.80;;
75218;SDS011;63801;49.414;19.474;2022-10-12T11:46:13;27.63;;;16.60;;
75218;SDS011;63801;49.414;19.474;2022-10-12T11:48:21;18.33;;;11.30;;
75218;SDS011;63801;49.414;19.474;2022-10-12T11:50:45;20.35;;;10.38;;
75218;SDS011;63801;49.414;19.474;2022-10-12T11:52:47;22.50;;;10.70;;
75218;SDS011;63801;49.414;19.474;2022-10-12T11:57:16;16.33;;;10.75;;
75218;SDS011;63801;49.414;19.474;2022-10-12T11:59:40;24.10;;;11.05;;
75218;SDS011;63801;49.414;19.474;2022-10-12T12:01:56;20.30;;;11.00;;
75218;SDS011;63801;49.414;19.474;2022-10-12T12:10:41;17.48;;;11.43;;
75218;SDS011;63801;49.414;19.474;2022-10-12T12:13:05;21.63;;;12.25;;
75218;SDS011;63801;49.414;19.474;2022-10-12T12:15:18;27.75;;;15.27;;
75218;SDS011;63801;49.414;19.474;2022-10-12T12:19:40;32.07;;;17.43;;
75218;SDS011;63801;49.414;19.474;2022-10-12T12:24:19;23.50;;;13.23;;
75218;SDS011;63801;49.414;19.474;2022-10-12T12:26:23;27.75;;;14.65;;
75218;SDS011;63801;49.414;19.474;2022-10-12T12:28:28;21.63;;;12.82;;
75218;SDS011;63801;49.414;19.474;2022-10-12T12:30:38;22.88;;;13.38;;
75218;SDS011;63801;49.414;19.474;2022-10-12T12:32:44;21.33;;;11.80;;
75218;SDS011;63801;49.414;19.474;2022-10-12T12:34:56;18.75;;;11.00;;
75218;SDS011;63801;49.414;19.474;2022-10-12T12:36:58;24.58;;;14.95;;
75218;SDS011;63801;49.414;19.474;2022-10-12T12:39:30;52.33;;;20.70;;
75218;SDS011;63801;49.414;19.474;2022-10-12T12:41:45;24.85;;;15.23;;
75218;SDS011;63801;49.414;19.474;2022-10-12T12:45:56;20.52;;;10.70;;
75218;SDS011;63801;49.414;19.474;2022-10-12T12:48:09;17.00;;;11.02;;
75218;SDS011;63801;49.414;19.474;2022-10-12T12:52:39;22.30;;;11.88;;
75218;SDS011;63801;49.414;19.474;2022-10-12T12:54:51;32.67;;;15.73;;
75218;SDS011;63801;49.414;19.474;2022-10-12T12:57:01;30.95;;;14.63;;
75218;SDS011;63801;49.414;19.474;2022-10-12T13:02:00;24.27;;;12.45;;
75218;SDS011;63801;49.414;19.474;2022-10-12T13:09:09;18.92;;;10.30;;